sensor_id;sensor_type;location;lat;lon;timestamp;P1;durP1;ratioP1;P2;durP2;ratioP2
31594;SDS011;18200;48.726;8.892;2022-07-23T00:02:06;6.25;;;5.43;;
31594;SDS011;18200;48.726;8.892;2022-07-23T00:06:06;7.05;;;6.20;;
31594;SDS011;18200;48.726;8.892;2022-07-23T00:10:07;8.80;;;6.03;;
31594;SDS011;18200;48.726;8.892;2022-07-23T00:14:08;8.00;;;5.32;;
31594;SDS011;18200;48.726;8.892;2022-07-23T00:18:08;8.05;;;6.20;;
31594;SDS011;18200;48.726;8.892;2022-07-23T00:22:08;7.60;;;5.57;;
31594;SDS011;18200;48.726;8.892;2022-07-23T00:26:09;8.57;;;6.40;;
31594;SDS011;18200;48.726;8.892;2022-07-23T00:30:10;8.40;;;5.95;;
31594;SDS011;18200;48.726;8.892;2022-07-23T00:34:11;8.25;;;6.40;;
31594;SDS011;18200;48.726;8.892;2022-07-23T00:38:11;9.07;;;6.00;;
31594;SDS011;18200;48.726;8.892;2022-07-23T00:42:11;8.18;;;6.13;;
31594;SDS011;18200;48.726;8.892;2022-07-23T00:46:12;7.82;;;5.97;;
31594;SDS011;18200;48.726;8.892;2022-07-23T00:50:12;7.80;;;5.80;;
31594;SDS011;18200;48.726;8.892;2022-07-23T00:54:13;6.97;;;5.65;;
31594;SDS011;18200;48.726;8.892;2022-07-23T00:58:14;6.53;;;5.75;;
31594;SDS011;18200;48.726;8.892;2022-07-23T01:02:16;7.00;;;6.00;;
31594;SDS011;18200;48.726;8.892;2022-07-23T01:06:17;8.68;;;5.70;;
31594;SDS011;18200;48.726;8.892;2022-07-23T01:10:17;6.68;;;5.10;;
31594;SDS011;18200;48.726;8.892;2022-07-23T01:14:33;6.53;;;5.07;;
31594;SDS011;18200;48.726;8.892;2022-07-23T01:18:34;6.65;;;5.05;;
31594;SDS011;18200;48.726;8.892;2022-07-23T01:22:34;8.00;;;5.50;;
31594;SDS011;18200;48.726;8.892;2022-07-23T01:26:35;6.75;;;5.50;;
31594;SDS011;18200;48.726;8.892;2022-07-23T01:30:36;8.13;;;6.28;;
31594;SDS011;18200;48.726;8.892;2022-07-23T01:34:40;6.55;;;5.55;;
31594;SDS011;18200;48.726;8.892;2022-07-23T01:38:41;6.93;;;5.90;;
31594;SDS011;18200;48.726;8.892;2022-07-23T01:42:41;7.25;;;5.82;;
31594;SDS011;18200;48.726;8.892;2022-07-23T01:46:43;6.03;;;5.43;;
31594;SDS011;18200;48.726;8.892;2022-07-23T01:50:43;7.78;;;6.53;;
31594;SDS011;18200;48.726;8.892;2022-07-23T01:54:54;11.85;;;6.22;;
31594;SDS011;18200;48.726;8.892;2022-07-23T01:58:55;7.60;;;6.20;;
31594;SDS011;18200;48.726;8.892;2022-07-23T02:02:56;7.05;;;6.20;;
31594;SDS011;18200;48.726;8.892;2022-07-23T02:06:58;6.75;;;5.72;;
31594;SDS011;18200;48.726;8.892;2022-07-23T02:11:00;7.57;;;6.03;;
31594;SDS011;18200;48.726;8.892;2022-07-23T02:15:00;7.85;;;5.80;;
31594;SDS011;18200;48.726;8.892;2022-07-23T02:19:01;8.05;;;5.95;;
31594;SDS011;18200;48.726;8.892;2022-07-23T02:23:02;7.38;;;5.78;;
31594;SDS011;18200;48.726;8.892;2022-07-23T02:27:03;7.38;;;6.03;;
31594;SDS011;18200;48.726;8.892;2022-07-23T02:31:05;7.53;;;6.40;;
31594;SDS011;18200;48.726;8.892;2022-07-23T02:35:07;6.88;;;6.13;;
31594;SDS011;18200;48.726;8.892;2022-07-23T02:39:08;8.85;;;6.53;;
31594;SDS011;18200;48.726;8.892;2022-07-23T02:43:09;7.13;;;6.15;;
31594;SDS011;18200;48.726;8.892;2022-07-23T02:47:10;6.68;;;5.97;;
31594;SDS011;18200;48.726;8.892;2022-07-23T02:51:11;7.28;;;6.35;;
31594;SDS011;18200;48.726;8.892;2022-07-23T02:55:16;10.27;;;6.18;;
31594;SDS011;18200;48.726;8.892;2022-07-23T02:59:17;7.43;;;5.82;;
31594;SDS011;18200;48.726;8.892;2022-07-23T03:03:18;6.50;;;5.78;;
31594;SDS011;18200;48.726;8.892;2022-07-23T03:11:47;7.10;;;6.30;;
31594;SDS011;18200;48.726;8.892;2022-07-23T03:15:47;7.30;;;6.05;;
31594;SDS011;18200;48.726;8.892;2022-07-23T03:19:47;9.73;;;6.45;;
31594;SDS011;18200;48.726;8.892;2022-07-23T03:23:48;8.80;;;6.90;;
31594;SDS011;18200;48.726;8.892;2022-07-23T03:27:48;11.57;;;10.50;;
31594;SDS011;18200;48.726;8.892;2022-07-23T03:31:49;7.05;;;6.18;;
31594;SDS011;18200;48.726;8.892;2022-07-23T03:35:49;10.18;;;6.60;;
31594;SDS011;18200;48.726;8.892;2022-07-23T03:39:56;6.43;;;5.68;;
31594;SDS011;18200;48.726;8.892;2022-07-23T03:43:57;8.35;;;6.82;;
31594;SDS011;18200;48.726;8.892;2022-07-23T03:47:57;6.88;;;5.80;;
31594;SDS011;18200;48.726;8.892;2022-07-23T03:51:57;7.97;;;6.30;;
31594;SDS011;18200;48.726;8.892;2022-07-23T03:55:58;8.73;;;6.40;;
31594;SDS011;18200;48.726;8.892;2022-07-23T03:59:59;7.65;;;6.85;;
31594;SDS011;18200;48.726;8.892;2022-07-23T04:04:00;6.93;;;6.03;;
31594;SDS011;18200;48.726;8.892;2022-07-23T04:08:01;14.52;;;7.03;;
31594;SDS011;18200;48.726;8.892;2022-07-23T04:12:01;8.93;;;6.15;;
31594;SDS011;18200;48.726;8.892;2022-07-23T04:16:02;7.80;;;6.63;;
31594;SDS011;18200;48.726;8.892;2022-07-23T04:20:03;9.27;;;6.78;;
31594;SDS011;18200;48.726;8.892;2022-07-23T04:24:10;7.90;;;6.75;;
31594;SDS011;18200;48.726;8.892;2022-07-23T04:28:10;6.88;;;6.00;;
31594;SDS011;18200;48.726;8.892;2022-07-23T04:32:11;7.00;;;6.30;;
31594;SDS011;18200;48.726;8.892;2022-07-23T04:36:11;8.05;;;6.47;;
31594;SDS011;18200;48.726;8.892;2022-07-23T04:40:12;8.15;;;6.55;;
31594;SDS011;18200;48.726;8.892;2022-07-23T04:44:13;9.25;;;7.13;;
31594;SDS011;18200;48.726;8.892;2022-07-23T04:48:13;8.77;;;6.28;;
31594;SDS011;18200;48.726;8.892;2022-07-23T04:52:14;9.98;;;7.30;;
31594;SDS011;18200;48.726;8.892;2022-07-23T04:56:15;8.48;;;7.43;;
31594;SDS011;18200;48.726;8.892;2022-07-23T05:00:16;9.13;;;6.38;;
31594;SDS011;18200;48.726;8.892;2022-07-23T05:04:16;8.35;;;6.70;;
31594;SDS011;18200;48.726;8.892;2022-07-23T05:08:18;9.30;;;7.45;;
31594;SDS011;18200;48.726;8.892;2022-07-23T05:12:23;9.00;;;6.53;;
31594;SDS011;18200;48.726;8.892;2022-07-23T05:16:24;8.63;;;6.43;;
31594;SDS011;18200;48.726;8.892;2022-07-23T05:20:26;9.13;;;7.10;;
31594;SDS011;18200;48.726;8.892;2022-07-23T05:24:27;7.85;;;5.90;;
31594;SDS011;18200;48.726;8.892;2022-07-23T05:28:27;9.93;;;6.80;;
31594;SDS011;18200;48.726;8.892;2022-07-23T05:32:28;7.22;;;6.30;;
31594;SDS011;18200;48.726;8.892;2022-07-23T05:36:40;8.45;;;6.57;;
31594;SDS011;18200;48.726;8.892;2022-07-23T05:40:40;6.57;;;5.93;;
31594;SDS011;18200;48.726;8.892;2022-07-23T05:44:41;9.23;;;6.22;;
31594;SDS011;18200;48.726;8.892;2022-07-23T05:48:42;8.18;;;6.60;;
31594;SDS011;18200;48.726;8.892;2022-07-23T05:53:02;9.13;;;6.90;;
31594;SDS011;18200;48.726;8.892;2022-07-23T05:57:32;8.40;;;6.22;;
31594;SDS011;18200;48.726;8.892;2022-07-23T06:01:32;8.07;;;6.05;;
31594;SDS011;18200;48.726;8.892;2022-07-23T06:05:42;7.55;;;6.70;;
31594;SDS011;18200;48.726;8.892;2022-07-23T06:09:43;9.05;;;6.78;;
31594;SDS011;18200;48.726;8.892;2022-07-23T06:13:44;8.13;;;6.35;;
31594;SDS011;18200;48.726;8.892;2022-07-23T06:17:45;8.48;;;6.63;;
31594;SDS011;18200;48.726;8.892;2022-07-23T06:21:46;11.70;;;7.05;;
31594;SDS011;18200;48.726;8.892;2022-07-23T06:25:47;7.68;;;6.78;;
31594;SDS011;18200;48.726;8.892;2022-07-23T06:29:47;7.93;;;6.50;;
31594;SDS011;18200;48.726;8.892;2022-07-23T06:33:48;10.98;;;7.13;;
31594;SDS011;18200;48.726;8.892;2022-07-23T06:37:48;10.75;;;6.95;;
31594;SDS011;18200;48.726;8.892;2022-07-23T06:41:48;9.82;;;6.18;;
31594;SDS011;18200;48.726;8.892;2022-07-23T06:45:51;8.85;;;6.93;;
31594;SDS011;18200;48.726;8.892;2022-07-23T06:49:51;7.35;;;6.35;;
31594;SDS011;18200;48.726;8.892;2022-07-23T06:53:51;9.68;;;7.10;;
31594;SDS011;18200;48.726;8.892;2022-07-23T06:57:52;8.57;;;6.40;;
31594;SDS011;18200;48.726;8.892;2022-07-23T07:01:52;9.05;;;6.60;;
31594;SDS011;18200;48.726;8.892;2022-07-23T07:05:53;11.85;;;7.03;;
31594;SDS011;18200;48.726;8.892;2022-07-23T07:09:53;10.80;;;6.95;;
31594;SDS011;18200;48.726;8.892;2022-07-23T07:13:53;10.13;;;7.50;;
31594;SDS011;18200;48.726;8.892;2022-07-23T07:17:54;10.07;;;7.03;;
31594;SDS011;18200;48.726;8.892;2022-07-23T07:21:54;12.55;;;7.95;;
31594;SDS011;18200;48.726;8.892;2022-07-23T07:25:54;10.85;;;7.63;;
31594;SDS011;18200;48.726;8.892;2022-07-23T07:29:55;8.07;;;7.15;;
31594;SDS011;18200;48.726;8.892;2022-07-23T07:33:55;12.13;;;7.35;;
31594;SDS011;18200;48.726;8.892;2022-07-23T07:37:56;9.85;;;7.28;;
31594;SDS011;18200;48.726;8.892;2022-07-23T07:41:57;10.57;;;7.57;;
31594;SDS011;18200;48.726;8.892;2022-07-23T07:45:57;12.40;;;7.43;;
31594;SDS011;18200;48.726;8.892;2022-07-23T07:49:58;9.00;;;7.53;;
31594;SDS011;18200;48.726;8.892;2022-07-23T07:53:58;9.57;;;7.53;;
31594;SDS011;18200;48.726;8.892;2022-07-23T07:57:58;10.30;;;7.65;;
31594;SDS011;18200;48.726;8.892;2022-07-23T08:01:59;8.52;;;6.82;;
31594;SDS011;18200;48.726;8.892;2022-07-23T08:06:00;8.95;;;7.28;;
31594;SDS011;18200;48.726;8.892;2022-07-23T08:10:00;9.70;;;7.32;;
31594;SDS011;18200;48.726;8.892;2022-07-23T08:14:00;8.35;;;6.85;;
31594;SDS011;18200;48.726;8.892;2022-07-23T08:18:01;8.45;;;6.75;;
31594;SDS011;18200;48.726;8.892;2022-07-23T08:22:01;9.07;;;7.18;;
31594;SDS011;18200;48.726;8.892;2022-07-23T08:26:02;8.18;;;6.45;;
31594;SDS011;18200;48.726;8.892;2022-07-23T08:30:02;7.13;;;6.30;;
31594;SDS011;18200;48.726;8.892;2022-07-23T08:34:03;9.23;;;6.63;;
31594;SDS011;18200;48.726;8.892;2022-07-23T08:38:04;11.32;;;6.18;;
31594;SDS011;18200;48.726;8.892;2022-07-23T08:42:06;8.13;;;6.70;;
31594;SDS011;18200;48.726;8.892;2022-07-23T08:46:07;8.25;;;6.20;;
31594;SDS011;18200;48.726;8.892;2022-07-23T08:50:08;8.90;;;5.97;;
31594;SDS011;18200;48.726;8.892;2022-07-23T08:54:09;7.95;;;6.18;;
31594;SDS011;18200;48.726;8.892;2022-07-23T08:58:10;9.10;;;6.03;;
31594;SDS011;18200;48.726;8.892;2022-07-23T09:02:10;7.68;;;5.68;;
31594;SDS011;18200;48.726;8.892;2022-07-23T09:06:12;8.55;;;6.68;;
31594;SDS011;18200;48.726;8.892;2022-07-23T09:10:12;9.70;;;6.55;;
31594;SDS011;18200;48.726;8.892;2022-07-23T09:14:13;6.05;;;5.10;;
31594;SDS011;18200;48.726;8.892;2022-07-23T09:18:15;7.63;;;5.43;;
31594;SDS011;18200;48.726;8.892;2022-07-23T09:22:26;7.70;;;5.50;;
31594;SDS011;18200;48.726;8.892;2022-07-23T09:30:32;7.95;;;5.95;;
31594;SDS011;18200;48.726;8.892;2022-07-23T09:34:35;5.80;;;5.07;;
31594;SDS011;18200;48.726;8.892;2022-07-23T09:38:49;6.30;;;5.63;;
31594;SDS011;18200;48.726;8.892;2022-07-23T09:42:56;6.65;;;5.75;;
31594;SDS011;18200;48.726;8.892;2022-07-23T09:46:58;6.13;;;5.32;;
31594;SDS011;18200;48.726;8.892;2022-07-23T09:51:02;5.93;;;5.32;;
31594;SDS011;18200;48.726;8.892;2022-07-23T09:59:05;8.20;;;5.90;;
31594;SDS011;18200;48.726;8.892;2022-07-23T10:03:07;7.63;;;5.75;;
31594;SDS011;18200;48.726;8.892;2022-07-23T10:07:16;6.68;;;5.97;;
31594;SDS011;18200;48.726;8.892;2022-07-23T10:11:36;6.78;;;6.07;;
31594;SDS011;18200;48.726;8.892;2022-07-23T10:15:47;7.38;;;6.03;;
31594;SDS011;18200;48.726;8.892;2022-07-23T10:19:48;7.47;;;6.35;;
31594;SDS011;18200;48.726;8.892;2022-07-23T10:24:10;7.75;;;6.40;;
31594;SDS011;18200;48.726;8.892;2022-07-23T10:28:42;8.00;;;6.28;;
31594;SDS011;18200;48.726;8.892;2022-07-23T10:37:34;7.45;;;6.50;;
31594;SDS011;18200;48.726;8.892;2022-07-23T10:41:39;6.00;;;5.40;;
31594;SDS011;18200;48.726;8.892;2022-07-23T10:45:40;8.70;;;5.72;;
31594;SDS011;18200;48.726;8.892;2022-07-23T10:49:40;8.45;;;5.97;;
31594;SDS011;18200;48.726;8.892;2022-07-23T10:53:59;6.78;;;6.10;;
31594;SDS011;18200;48.726;8.892;2022-07-23T10:58:03;7.88;;;6.30;;
31594;SDS011;18200;48.726;8.892;2022-07-23T11:02:21;9.93;;;6.32;;
31594;SDS011;18200;48.726;8.892;2022-07-23T11:10:52;7.35;;;6.47;;
31594;SDS011;18200;48.726;8.892;2022-07-23T11:15:10;6.97;;;6.28;;
31594;SDS011;18200;48.726;8.892;2022-07-23T11:19:13;7.00;;;6.30;;
31594;SDS011;18200;48.726;8.892;2022-07-23T11:23:13;7.45;;;6.40;;
31594;SDS011;18200;48.726;8.892;2022-07-23T11:27:14;7.75;;;6.47;;
31594;SDS011;18200;48.726;8.892;2022-07-23T11:31:17;6.88;;;6.20;;
31594;SDS011;18200;48.726;8.892;2022-07-23T11:35:18;7.60;;;6.20;;
31594;SDS011;18200;48.726;8.892;2022-07-23T11:39:28;9.30;;;6.20;;
31594;SDS011;18200;48.726;8.892;2022-07-23T11:43:30;8.25;;;6.30;;
31594;SDS011;18200;48.726;8.892;2022-07-23T11:47:30;6.47;;;5.88;;
31594;SDS011;18200;48.726;8.892;2022-07-23T11:51:30;9.70;;;6.78;;
31594;SDS011;18200;48.726;8.892;2022-07-23T11:55:32;9.40;;;7.00;;
31594;SDS011;18200;48.726;8.892;2022-07-23T11:59:33;9.00;;;6.55;;
31594;SDS011;18200;48.726;8.892;2022-07-23T12:03:35;11.65;;;7.03;;
31594;SDS011;18200;48.726;8.892;2022-07-23T12:07:37;8.50;;;6.40;;
31594;SDS011;18200;48.726;8.892;2022-07-23T12:11:39;8.57;;;6.80;;
31594;SDS011;18200;48.726;8.892;2022-07-23T12:15:57;8.07;;;6.03;;
31594;SDS011;18200;48.726;8.892;2022-07-23T12:19:58;7.38;;;6.68;;
31594;SDS011;18200;48.726;8.892;2022-07-23T12:24:06;11.32;;;6.57;;
31594;SDS011;18200;48.726;8.892;2022-07-23T12:28:08;6.68;;;6.00;;
31594;SDS011;18200;48.726;8.892;2022-07-23T12:32:21;8.10;;;6.93;;
31594;SDS011;18200;48.726;8.892;2022-07-23T12:36:23;10.50;;;6.30;;
31594;SDS011;18200;48.726;8.892;2022-07-23T12:45:07;8.17;;;6.53;;
31594;SDS011;18200;48.726;8.892;2022-07-23T12:49:11;9.88;;;6.38;;
31594;SDS011;18200;48.726;8.892;2022-07-23T12:53:33;8.32;;;6.47;;
31594;SDS011;18200;48.726;8.892;2022-07-23T12:57:46;8.27;;;6.30;;
31594;SDS011;18200;48.726;8.892;2022-07-23T13:01:54;7.07;;;6.15;;
31594;SDS011;18200;48.726;8.892;2022-07-23T13:05:55;8.25;;;6.47;;
31594;SDS011;18200;48.726;8.892;2022-07-23T13:09:56;7.18;;;6.43;;
31594;SDS011;18200;48.726;8.892;2022-07-23T13:13:56;11.48;;;7.00;;
31594;SDS011;18200;48.726;8.892;2022-07-23T13:17:57;8.45;;;6.72;;
31594;SDS011;18200;48.726;8.892;2022-07-23T13:21:57;8.18;;;6.45;;
31594;SDS011;18200;48.726;8.892;2022-07-23T13:25:57;9.80;;;6.73;;
31594;SDS011;18200;48.726;8.892;2022-07-23T13:29:58;9.07;;;7.30;;
31594;SDS011;18200;48.726;8.892;2022-07-23T13:33:58;7.20;;;6.32;;
31594;SDS011;18200;48.726;8.892;2022-07-23T13:37:59;7.97;;;6.45;;
31594;SDS011;18200;48.726;8.892;2022-07-23T13:41:59;9.07;;;6.35;;
31594;SDS011;18200;48.726;8.892;2022-07-23T13:45:59;9.27;;;6.22;;
31594;SDS011;18200;48.726;8.892;2022-07-23T13:50:00;7.97;;;6.60;;
31594;SDS011;18200;48.726;8.892;2022-07-23T13:54:00;8.48;;;6.35;;
31594;SDS011;18200;48.726;8.892;2022-07-23T13:58:03;8.70;;;6.63;;
31594;SDS011;18200;48.726;8.892;2022-07-23T14:02:04;7.75;;;6.50;;
31594;SDS011;18200;48.726;8.892;2022-07-23T14:06:05;7.00;;;6.30;;
31594;SDS011;18200;48.726;8.892;2022-07-23T14:10:06;7.40;;;6.45;;
31594;SDS011;18200;48.726;8.892;2022-07-23T14:14:08;6.95;;;6.25;;
31594;SDS011;18200;48.726;8.892;2022-07-23T14:18:08;9.17;;;6.50;;
31594;SDS011;18200;48.726;8.892;2022-07-23T14:22:09;9.00;;;6.82;;
31594;SDS011;18200;48.726;8.892;2022-07-23T14:26:09;8.82;;;6.82;;
31594;SDS011;18200;48.726;8.892;2022-07-23T14:30:10;7.47;;;6.25;;
31594;SDS011;18200;48.726;8.892;2022-07-23T14:34:11;9.20;;;6.63;;
31594;SDS011;18200;48.726;8.892;2022-07-23T14:38:11;7.25;;;6.50;;
31594;SDS011;18200;48.726;8.892;2022-07-23T14:42:12;8.20;;;6.45;;
31594;SDS011;18200;48.726;8.892;2022-07-23T14:46:12;11.48;;;7.30;;
31594;SDS011;18200;48.726;8.892;2022-07-23T14:50:13;10.55;;;6.68;;
31594;SDS011;18200;48.726;8.892;2022-07-23T14:54:14;7.55;;;6.25;;
31594;SDS011;18200;48.726;8.892;2022-07-23T14:58:14;7.47;;;6.57;;
31594;SDS011;18200;48.726;8.892;2022-07-23T15:02:15;9.60;;;6.70;;
31594;SDS011;18200;48.726;8.892;2022-07-23T15:06:16;7.55;;;6.75;;
31594;SDS011;18200;48.726;8.892;2022-07-23T15:10:18;9.27;;;7.05;;
31594;SDS011;18200;48.726;8.892;2022-07-23T15:14:19;7.97;;;6.82;;
31594;SDS011;18200;48.726;8.892;2022-07-23T15:18:19;8.40;;;7.05;;
31594;SDS011;18200;48.726;8.892;2022-07-23T15:22:20;9.88;;;7.05;;
31594;SDS011;18200;48.726;8.892;2022-07-23T15:26:21;9.60;;;7.05;;
31594;SDS011;18200;48.726;8.892;2022-07-23T15:30:26;9.30;;;7.32;;
31594;SDS011;18200;48.726;8.892;2022-07-23T15:34:27;8.57;;;7.20;;
31594;SDS011;18200;48.726;8.892;2022-07-23T15:38:27;7.82;;;7.05;;
31594;SDS011;18200;48.726;8.892;2022-07-23T15:42:28;12.45;;;7.25;;
31594;SDS011;18200;48.726;8.892;2022-07-23T15:46:28;7.60;;;6.72;;
31594;SDS011;18200;48.726;8.892;2022-07-23T15:50:28;7.82;;;6.43;;
31594;SDS011;18200;48.726;8.892;2022-07-23T15:54:29;7.80;;;6.67;;
31594;SDS011;18200;48.726;8.892;2022-07-23T15:58:29;7.93;;;6.17;;
31594;SDS011;18200;48.726;8.892;2022-07-23T16:02:30;11.10;;;6.72;;
31594;SDS011;18200;48.726;8.892;2022-07-23T16:06:31;8.70;;;6.75;;
31594;SDS011;18200;48.726;8.892;2022-07-23T16:10:32;9.20;;;7.10;;
31594;SDS011;18200;48.726;8.892;2022-07-23T16:14:33;8.20;;;6.85;;
31594;SDS011;18200;48.726;8.892;2022-07-23T16:18:33;8.33;;;6.97;;
31594;SDS011;18200;48.726;8.892;2022-07-23T16:22:34;9.30;;;7.50;;
31594;SDS011;18200;48.726;8.892;2022-07-23T16:26:35;13.55;;;7.00;;
31594;SDS011;18200;48.726;8.892;2022-07-23T16:30:36;9.07;;;6.90;;
31594;SDS011;18200;48.726;8.892;2022-07-23T16:34:36;10.93;;;7.50;;
31594;SDS011;18200;48.726;8.892;2022-07-23T16:38:37;8.30;;;7.43;;
31594;SDS011;18200;48.726;8.892;2022-07-23T16:42:38;10.55;;;7.45;;
31594;SDS011;18200;48.726;8.892;2022-07-23T16:46:38;9.35;;;7.97;;
31594;SDS011;18200;48.726;8.892;2022-07-23T16:50:39;10.30;;;7.70;;
31594;SDS011;18200;48.726;8.892;2022-07-23T16:54:39;9.30;;;7.72;;
31594;SDS011;18200;48.726;8.892;2022-07-23T16:58:40;10.65;;;8.02;;
31594;SDS011;18200;48.726;8.892;2022-07-23T17:02:40;13.52;;;8.48;;
31594;SDS011;18200;48.726;8.892;2022-07-23T17:06:41;10.30;;;7.93;;
31594;SDS011;18200;48.726;8.892;2022-07-23T17:10:42;11.40;;;8.30;;
31594;SDS011;18200;48.726;8.892;2022-07-23T17:14:42;12.48;;;8.85;;
31594;SDS011;18200;48.726;8.892;2022-07-23T17:18:43;10.65;;;7.88;;
31594;SDS011;18200;48.726;8.892;2022-07-23T17:22:43;9.65;;;7.90;;
31594;SDS011;18200;48.726;8.892;2022-07-23T17:26:44;9.82;;;8.20;;
31594;SDS011;18200;48.726;8.892;2022-07-23T17:30:45;11.90;;;7.80;;
31594;SDS011;18200;48.726;8.892;2022-07-23T17:34:45;10.10;;;7.65;;
31594;SDS011;18200;48.726;8.892;2022-07-23T17:38:46;8.80;;;7.60;;
31594;SDS011;18200;48.726;8.892;2022-07-23T17:42:47;18.25;;;12.80;;
31594;SDS011;18200;48.726;8.892;2022-07-23T17:46:47;11.25;;;8.63;;
31594;SDS011;18200;48.726;8.892;2022-07-23T17:50:48;9.68;;;8.05;;
31594;SDS011;18200;48.726;8.892;2022-07-23T17:54:48;10.38;;;9.27;;
31594;SDS011;18200;48.726;8.892;2022-07-23T17:58:48;9.63;;;7.83;;
31594;SDS011;18200;48.726;8.892;2022-07-23T18:02:49;10.10;;;8.07;;
31594;SDS011;18200;48.726;8.892;2022-07-23T18:06:50;9.15;;;7.63;;
31594;SDS011;18200;48.726;8.892;2022-07-23T18:10:51;9.55;;;7.85;;
31594;SDS011;18200;48.726;8.892;2022-07-23T18:14:52;11.50;;;7.97;;
31594;SDS011;18200;48.726;8.892;2022-07-23T18:18:52;11.80;;;8.07;;
31594;SDS011;18200;48.726;8.892;2022-07-23T18:22:53;9.63;;;7.90;;
31594;SDS011;18200;48.726;8.892;2022-07-23T18:26:53;12.55;;;8.07;;
31594;SDS011;18200;48.726;8.892;2022-07-23T18:30:54;9.00;;;8.10;;
31594;SDS011;18200;48.726;8.892;2022-07-23T18:34:54;10.88;;;8.30;;
31594;SDS011;18200;48.726;8.892;2022-07-23T18:38:55;9.73;;;7.55;;
31594;SDS011;18200;48.726;8.892;2022-07-23T18:42:56;9.38;;;7.82;;
31594;SDS011;18200;48.726;8.892;2022-07-23T18:46:58;12.40;;;7.35;;
31594;SDS011;18200;48.726;8.892;2022-07-23T18:50:58;9.67;;;7.43;;
31594;SDS011;18200;48.726;8.892;2022-07-23T18:54:59;9.98;;;8.40;;
31594;SDS011;18200;48.726;8.892;2022-07-23T18:58:59;8.52;;;7.65;;
31594;SDS011;18200;48.726;8.892;2022-07-23T19:03:00;18.60;;;13.32;;
31594;SDS011;18200;48.726;8.892;2022-07-23T19:07:01;14.93;;;10.75;;
31594;SDS011;18200;48.726;8.892;2022-07-23T19:11:02;13.52;;;9.98;;
31594;SDS011;18200;48.726;8.892;2022-07-23T19:15:03;11.50;;;8.85;;
31594;SDS011;18200;48.726;8.892;2022-07-23T19:19:04;10.00;;;8.77;;
31594;SDS011;18200;48.726;8.892;2022-07-23T19:23:05;10.63;;;8.07;;
31594;SDS011;18200;48.726;8.892;2022-07-23T19:27:05;9.90;;;8.18;;
31594;SDS011;18200;48.726;8.892;2022-07-23T19:31:06;9.45;;;8.43;;
31594;SDS011;18200;48.726;8.892;2022-07-23T19:35:06;12.07;;;9.32;;
31594;SDS011;18200;48.726;8.892;2022-07-23T19:39:08;15.13;;;8.80;;
31594;SDS011;18200;48.726;8.892;2022-07-23T19:43:08;14.82;;;9.45;;
31594;SDS011;18200;48.726;8.892;2022-07-23T19:47:09;13.68;;;9.38;;
31594;SDS011;18200;48.726;8.892;2022-07-23T19:51:09;14.27;;;9.90;;
31594;SDS011;18200;48.726;8.892;2022-07-23T19:55:10;13.10;;;9.13;;
31594;SDS011;18200;48.726;8.892;2022-07-23T19:59:10;16.20;;;9.05;;
31594;SDS011;18200;48.726;8.892;2022-07-23T20:03:11;14.90;;;9.70;;
31594;SDS011;18200;48.726;8.892;2022-07-23T20:07:11;17.48;;;10.63;;
31594;SDS011;18200;48.726;8.892;2022-07-23T20:11:12;13.13;;;10.02;;
31594;SDS011;18200;48.726;8.892;2022-07-23T20:15:13;11.43;;;9.45;;
31594;SDS011;18200;48.726;8.892;2022-07-23T20:19:13;12.35;;;9.82;;
31594;SDS011;18200;48.726;8.892;2022-07-23T20:23:14;12.18;;;9.82;;
31594;SDS011;18200;48.726;8.892;2022-07-23T20:27:15;11.80;;;9.48;;
31594;SDS011;18200;48.726;8.892;2022-07-23T20:31:15;16.17;;;9.55;;
31594;SDS011;18200;48.726;8.892;2022-07-23T20:35:16;12.80;;;9.65;;
31594;SDS011;18200;48.726;8.892;2022-07-23T20:39:16;13.25;;;8.73;;
31594;SDS011;18200;48.726;8.892;2022-07-23T20:43:16;14.00;;;10.60;;
31594;SDS011;18200;48.726;8.892;2022-07-23T20:47:17;13.30;;;9.52;;
31594;SDS011;18200;48.726;8.892;2022-07-23T20:51:18;13.75;;;10.82;;
31594;SDS011;18200;48.726;8.892;2022-07-23T20:55:19;11.75;;;9.40;;
31594;SDS011;18200;48.726;8.892;2022-07-23T20:59:20;13.65;;;10.20;;
31594;SDS011;18200;48.726;8.892;2022-07-23T21:03:20;12.43;;;10.15;;
31594;SDS011;18200;48.726;8.892;2022-07-23T21:07:21;14.48;;;11.07;;
31594;SDS011;18200;48.726;8.892;2022-07-23T21:11:21;13.55;;;10.40;;
31594;SDS011;18200;48.726;8.892;2022-07-23T21:15:22;15.55;;;10.98;;
31594;SDS011;18200;48.726;8.892;2022-07-23T21:19:22;12.32;;;10.02;;
31594;SDS011;18200;48.726;8.892;2022-07-23T21:23:23;11.43;;;10.15;;
31594;SDS011;18200;48.726;8.892;2022-07-23T21:27:23;11.15;;;9.95;;
31594;SDS011;18200;48.726;8.892;2022-07-23T21:31:23;12.52;;;10.38;;
31594;SDS011;18200;48.726;8.892;2022-07-23T21:35:24;14.13;;;9.60;;
31594;SDS011;18200;48.726;8.892;2022-07-23T21:39:24;11.57;;;9.82;;
31594;SDS011;18200;48.726;8.892;2022-07-23T21:43:25;13.15;;;10.63;;
31594;SDS011;18200;48.726;8.892;2022-07-23T21:47:25;13.50;;;10.75;;
31594;SDS011;18200;48.726;8.892;2022-07-23T21:51:25;14.98;;;10.73;;
31594;SDS011;18200;48.726;8.892;2022-07-23T21:55:27;14.80;;;11.00;;
31594;SDS011;18200;48.726;8.892;2022-07-23T21:59:28;15.63;;;11.25;;
31594;SDS011;18200;48.726;8.892;2022-07-23T22:03:28;12.20;;;10.77;;
31594;SDS011;18200;48.726;8.892;2022-07-23T22:07:29;14.65;;;11.13;;
31594;SDS011;18200;48.726;8.892;2022-07-23T22:11:30;14.35;;;10.55;;
31594;SDS011;18200;48.726;8.892;2022-07-23T22:15:30;15.43;;;11.15;;
31594;SDS011;18200;48.726;8.892;2022-07-23T22:19:30;12.88;;;10.23;;
31594;SDS011;18200;48.726;8.892;2022-07-23T22:23:31;12.05;;;10.23;;
31594;SDS011;18200;48.726;8.892;2022-07-23T22:27:31;12.27;;;10.30;;
31594;SDS011;18200;48.726;8.892;2022-07-23T22:31:32;14.13;;;10.95;;
31594;SDS011;18200;48.726;8.892;2022-07-23T22:35:32;12.38;;;10.55;;
31594;SDS011;18200;48.726;8.892;2022-07-23T22:39:32;11.90;;;10.57;;
31594;SDS011;18200;48.726;8.892;2022-07-23T22:43:33;13.93;;;11.20;;
31594;SDS011;18200;48.726;8.892;2022-07-23T22:47:33;16.52;;;11.52;;
31594;SDS011;18200;48.726;8.892;2022-07-23T22:51:34;12.88;;;10.63;;
31594;SDS011;18200;48.726;8.892;2022-07-23T22:55:34;13.77;;;12.20;;
31594;SDS011;18200;48.726;8.892;2022-07-23T22:59:35;12.00;;;10.80;;
31594;SDS011;18200;48.726;8.892;2022-07-23T23:03:36;13.32;;;10.75;;
31594;SDS011;18200;48.726;8.892;2022-07-23T23:07:36;12.85;;;11.00;;
31594;SDS011;18200;48.726;8.892;2022-07-23T23:11:36;13.50;;;11.93;;
31594;SDS011;18200;48.726;8.892;2022-07-23T23:15:37;15.48;;;12.25;;
31594;SDS011;18200;48.726;8.892;2022-07-23T23:19:37;15.27;;;11.70;;
31594;SDS011;18200;48.726;8.892;2022-07-23T23:23:37;13.02;;;11.38;;
31594;SDS011;18200;48.726;8.892;2022-07-23T23:27:38;13.05;;;11.70;;
31594;SDS011;18200;48.726;8.892;2022-07-23T23:31:39;16.05;;;12.27;;
31594;SDS011;18200;48.726;8.892;2022-07-23T23:35:39;13.13;;;11.73;;
31594;SDS011;18200;48.726;8.892;2022-07-23T23:39:41;13.15;;;11.43;;
31594;SDS011;18200;48.726;8.892;2022-07-23T23:43:41;12.40;;;11.10;;
31594;SDS011;18200;48.726;8.892;2022-07-23T23:47:41;13.82;;;11.75;;
31594;SDS011;18200;48.726;8.892;2022-07-23T23:51:42;15.02;;;11.68;;
31594;SDS011;18200;48.726;8.892;2022-07-23T23:55:42;16.83;;;11.98;;
31594;SDS011;18200;48.726;8.892;2022-07-23T23:59:42;15.25;;;12.02;;
